Portada
METAR-TAF:

METAR-TAF

Aeropuertos :

Ciudad de Kuwait, Kuwait

Aeropuerto Internacional de Kuwait

latitud: 29-13N, longitud: 047-59E, altitud: 55 m

Observación

El informe se hizo hace 18 minutos, a las 15:00 UTC
Viento 8 kt del norte-noroeste
Temperatura 17°C
Humedad 20%
Presión 1023 hPa
Visibilidad 10 km o más
sin nubes por debajo de 1500 m y sin presencia de cumulonimbus.

METAR: OKBK 111500Z 33008KT CAVOK 17/M06 Q1023 NOSIG

Hora: 18:18 (15:18 UTC)

Pronóstico

El informe se hizo hace 4 horas y 33 minutos, a las 10:45 UTC
Pronóstico válido del 11 a las 12 UTC al 12 a las 18 UTC
Viento 8 kt del norte-noroeste con ráfagas de 18 kt
Visibilidad: 7000 m
Cielo despejado

TAF: OKBK 111045Z 1112/1218 33008G18KT 7000 SKC

Observaciones y pronósticos meteorológicos de más de 4000 aeropuertos (mensajes METAR y TAF).

Los puntos amarillos y rojos representan las estaciones disponibles.

Ponga el ratón en el punto deseado para ver el nombre de la estación.

Haga clic para ver las observaciones y los pronósticos meteorológicos.

Para cambiar el mapa : haga clic en los botones verdes con una cruz de color negro para hacer un zoom, en el botón verde con un guión para alejar o en las flechas verdes para mapas adyacentes.


METAR-TAF: